Time;durP1;ratioP1;P1;durP2;ratioP2;P2;SDS_P1;SDS_P2;PMS_P1;PMS_P2;Temp;Humidity;BMP_temperature;BMP_pressure;BME280_temperature;BME280_humidity;BME280_pressure;Samples;Min_cycle;Max_cycle;Signal;HPM_P1;HPM_P2
2022/08/18 00:02:10;;;;;;;104.07;76.63;;;;;;;17.55;100.00;101182.53;5092732;28;20030;-48
2022/08/18 00:04:37;;;;;;;106.18;73.43;;;;;;;17.55;100.00;101175.56;5093152;28;20032;-49
2022/08/18 00:07:07;;;;;;;102.77;73.77;;;;;;;17.58;100.00;101182.53;5092335;28;20024;-50
2022/08/18 00:09:35;;;;;;;110.10;74.00;;;;;;;17.54;100.00;101173.81;5093195;28;20075;-48
2022/08/18 00:12:04;;;;;;;110.43;75.25;;;;;;;17.54;100.00;101183.41;5093053;28;20054;-50
2022/08/18 00:14:30;;;;;;;106.57;75.18;;;;;;;17.57;100.00;101192.13;5091458;28;20063;-49
2022/08/18 00:16:56;;;;;;;104.95;72.75;;;;;;;17.57;100.00;101186.00;5093083;28;20051;-50
2022/08/18 00:19:22;;;;;;;106.60;74.15;;;;;;;17.57;100.00;101180.78;5092984;28;20382;-46
2022/08/18 00:21:47;;;;;;;105.45;73.47;;;;;;;17.58;100.00;101182.53;5092140;28;20024;-50
2022/08/18 00:24:13;;;;;;;110.55;74.28;;;;;;;17.61;100.00;101182.56;5092866;28;20089;-50
2022/08/18 00:26:38;;;;;;;101.55;73.80;;;;;;;17.68;100.00;101189.56;5092909;28;20490;-50
2022/08/18 00:29:03;;;;;;;103.78;72.13;;;;;;;17.67;100.00;101186.94;5092025;28;20414;-49
2022/08/18 00:31:30;;;;;;;99.75;71.53;;;;;;;17.66;100.00;101193.88;5092827;28;20048;-50
2022/08/18 00:33:55;;;;;;;102.85;73.85;;;;;;;17.68;100.00;101205.19;5092669;28;20478;-49
2022/08/18 00:36:20;;;;;;;112.03;75.40;;;;;;;17.70;100.00;101206.09;5092130;28;20029;-44
2022/08/18 00:38:46;;;;;;;103.07;73.88;;;;;;;17.69;100.00;101196.53;5092828;28;20417;-48
2022/08/18 00:41:11;;;;;;;107.82;76.50;;;;;;;17.70;100.00;101198.28;5092819;28;20433;-48
2022/08/18 00:43:44;;;;;;;104.15;72.13;;;;;;;17.67;100.00;101200.84;5092008;28;20028;-48
2022/08/18 00:46:15;;;;;;;102.00;73.75;;;;;;;17.65;100.00;101215.63;5092683;28;20082;-50
2022/08/18 00:48:40;;;;;;;97.68;71.30;;;;;;;17.67;100.00;101208.66;5092307;28;20173;-46
2022/08/18 00:51:10;;;;;;;99.80;72.57;;;;;;;17.68;100.00;101219.97;5092002;28;20491;-49
2022/08/18 00:54:00;;;;;;;102.35;73.18;;;;;;;17.67;100.00;101219.09;5092375;28;20455;-47
2022/08/18 00:56:35;;;;;;;93.50;69.55;;;;;;;17.65;100.00;101209.50;5091818;28;20020;-48
2022/08/18 00:59:08;;;;;;;91.40;69.10;;;;;;;17.61;100.00;101216.44;5092498;28;20470;-47
2022/08/18 01:01:34;;;;;;;94.55;70.20;;;;;;;17.62;100.00;101210.38;5092695;28;20032;-46
2022/08/18 01:04:09;;;;;;;91.45;66.90;;;;;;;17.58;100.00;101214.72;5091886;28;20070;-49
2022/08/18 01:06:39;;;;;;;88.60;63.33;;;;;;;17.50;100.00;101211.16;5092521;28;20099;-49
2022/08/18 01:09:07;;;;;;;87.43;64.30;;;;;;;17.48;100.00;101206.81;5092505;28;20031;-47
2022/08/18 01:11:33;;;;;;;85.85;63.70;;;;;;;17.42;100.00;101213.72;5091632;28;20111;-48
2022/08/18 01:13:58;;;;;;;91.20;66.97;;;;;;;17.39;100.00;101205.88;5092194;28;20032;-48
2022/08/18 01:22:01;;;;;;;97.20;72.60;;;;;;;17.32;100.00;101200.63;5092643;28;20039;-49
2022/08/18 01:27:17;;;;;;;;;;;;;;;17.39;100.00;101216.31;5096926;28;20118;-49
2022/08/18 01:29:47;;;;;;;89.85;64.70;;;;;;;17.27;100.00;101211.00;5096023;28;19995;-49
2022/08/18 01:32:19;;;;;;;93.95;67.45;;;;;;;17.23;100.00;101210.09;5095073;28;20532;-49
2022/08/18 01:34:47;;;;;;;100.10;72.25;;;;;;;17.21;100.00;101210.94;5095799;28;20050;-48
2022/08/18 01:37:15;;;;;;;97.97;71.65;;;;;;;17.22;100.00;101210.97;5095970;28;20058;-49
2022/08/18 01:39:41;;;;;;;96.55;69.10;;;;;;;17.17;100.00;101201.38;5095146;28;20020;-48
2022/08/18 01:42:06;;;;;;;95.82;69.82;;;;;;;17.13;100.00;101199.59;5095797;28;20046;-48
2022/08/18 01:44:32;;;;;;;105.43;71.97;;;;;;;17.15;100.00;101203.09;5095473;28;20024;-49
2022/08/18 01:46:58;;;;;;;101.05;71.22;;;;;;;17.11;100.00;101205.66;5095092;28;20115;-49
2022/08/18 01:49:23;;;;;;;103.78;70.45;;;;;;;17.06;100.00;101203.88;5095272;28;20119;-49
2022/08/18 01:51:48;;;;;;;94.85;66.80;;;;;;;16.96;100.00;101202.94;5095223;28;20070;-47
2022/08/18 01:54:14;;;;;;;99.00;69.65;;;;;;;16.90;100.00;101197.63;5095128;28;20024;-49
2022/08/18 01:56:41;;;;;;;102.93;67.95;;;;;;;16.82;100.00;101202.75;5095507;28;20337;-46
2022/08/18 01:59:12;;;;;;;99.20;70.43;;;;;;;16.82;100.00;101194.09;5095214;28;20020;-48
2022/08/18 02:01:38;;;;;;;98.80;67.20;;;;;;;16.72;100.00;101194.00;5094593;28;20281;-50
2022/08/18 02:04:05;;;;;;;96.90;65.90;;;;;;;16.68;100.00;101193.94;5095169;28;20111;-45
2022/08/18 02:06:32;;;;;;;94.28;67.72;;;;;;;16.60;100.00;101199.06;5094558;28;20020;-44
2022/08/18 02:08:57;;;;;;;102.13;69.88;;;;;;;16.57;100.00;101191.25;5095089;28;20463;-43
2022/08/18 02:11:23;;;;;;;100.53;66.95;;;;;;;16.54;100.00;101186.00;5095152;28;20031;-45
2022/08/18 02:13:48;;;;;;;93.88;65.18;;;;;;;16.47;100.00;101182.47;5094307;28;20437;-45
2022/08/18 02:16:13;;;;;;;98.60;70.13;;;;;;;16.46;100.00;101181.59;5095050;28;20039;-44
2022/08/18 02:18:39;;;;;;;104.88;69.82;;;;;;;16.41;100.00;101193.69;5095134;28;20032;-45
2022/08/18 02:21:09;;;;;;;102.95;70.97;;;;;;;16.40;100.00;101189.34;5094171;28;20020;-46
2022/08/18 02:23:34;;;;;;;99.65;69.30;;;;;;;16.36;100.00;101197.97;5094902;28;20035;-43
2022/08/18 02:26:07;;;;;;;100.07;66.70;;;;;;;16.30;100.00;101190.94;5094929;28;20024;-45
2022/08/18 02:28:32;;;;;;;99.22;68.60;;;;;;;16.29;100.00;101199.63;5094117;28;20101;-46
2022/08/18 02:31:04;;;;;;;113.20;73.45;;;;;;;16.35;100.00;101195.34;5094727;28;20062;-44
2022/08/18 02:33:29;;;;;;;99.15;67.43;;;;;;;16.25;100.00;101202.16;5094811;28;20382;-48
2022/08/18 02:35:54;;;;;;;101.82;65.60;;;;;;;16.21;100.00;101196.03;5093197;28;20486;-46
2022/08/18 02:38:19;;;;;;;94.30;63.47;;;;;;;16.18;100.00;101201.22;5094792;28;20020;-44
2022/08/18 02:40:45;;;;;;;111.70;70.53;;;;;;;16.26;100.00;101194.38;5094361;28;20103;-46
2022/08/18 02:43:11;;;;;;;106.53;72.15;;;;;;;16.22;100.00;101196.94;5093832;28;20022;-44
2022/08/18 02:45:38;;;;;;;107.40;69.70;;;;;;;16.23;100.00;101203.88;5094309;28;20040;-47
2022/08/18 02:48:04;;;;;;;110.80;70.40;;;;;;;16.21;100.00;101206.44;5094130;28;20059;-44
2022/08/18 02:50:29;;;;;;;102.40;67.30;;;;;;;16.13;100.00;101210.69;5093653;28;20360;-44
2022/08/18 02:52:55;;;;;;;107.65;70.07;;;;;;;16.19;100.00;101208.19;5094308;28;20093;-46
2022/08/18 02:55:21;;;;;;;113.22;71.97;;;;;;;16.19;100.00;101209.88;5094207;28;20099;-45
2022/08/18 02:57:47;;;;;;;113.43;71.45;;;;;;;16.19;100.00;101209.88;5093654;28;20462;-45
2022/08/18 03:00:15;;;;;;;106.93;70.47;;;;;;;16.16;100.00;101208.13;5094171;28;20036;-46
2022/08/18 03:02:50;;;;;;;93.10;64.22;;;;;;;16.10;100.00;101202.84;5093464;28;20115;-44
2022/08/18 03:05:16;;;;;;;94.80;65.15;;;;;;;16.03;100.00;101201.03;5094266;28;20024;-43
2022/08/18 03:07:42;;;;;;;93.65;62.05;;;;;;;15.97;100.00;101196.59;5094007;28;20052;-45
2022/08/18 03:10:08;;;;;;;88.75;61.78;;;;;;;15.96;100.00;101208.75;5093241;28;20514;-46
2022/08/18 03:12:34;;;;;;;83.90;59.95;;;;;;;15.89;100.00;101200.84;5093750;28;20093;-47
2022/08/18 03:15:01;;;;;;;97.57;64.45;;;;;;;15.92;100.00;101209.56;5094022;28;20414;-45
2022/08/18 03:17:26;;;;;;;97.13;65.80;;;;;;;15.89;100.00;101208.66;5093206;28;20020;-44
2022/08/18 03:19:52;;;;;;;102.88;68.65;;;;;;;15.95;100.00;101203.53;5093610;28;20078;-45
2022/08/18 03:22:17;;;;;;;98.47;65.88;;;;;;;15.89;100.00;101206.03;5094012;28;20031;-46
2022/08/18 03:24:43;;;;;;;98.50;66.15;;;;;;;15.86;100.00;101209.47;5092775;28;20032;-46
2022/08/18 03:27:08;;;;;;;101.18;65.18;;;;;;;15.86;100.00;101208.63;5093459;28;20036;-45
2022/08/18 03:29:35;;;;;;;98.60;61.83;;;;;;;15.80;100.00;101218.03;5093808;28;20077;-45
2022/08/18 03:32:02;;;;;;;86.85;60.42;;;;;;;15.69;100.00;101219.59;5092971;28;20047;-43
2022/08/18 03:34:27;;;;;;;;;;;;;;;15.79;100.00;101218.88;5093653;28;20471;-45
2022/08/18 03:36:53;;;;;;;67.00;49.43;;;;;;;15.44;100.00;101218.34;5093377;28;19912;-44
2022/08/18 03:39:22;;;;;;;61.13;46.58;;;;;;;15.50;100.00;101220.19;5093245;28;20028;-44
2022/08/18 03:41:49;;;;;;;61.95;49.05;;;;;;;15.42;100.00;101218.34;5093434;28;20028;-44
2022/08/18 03:44:14;;;;;;;77.55;44.80;;;;;;;15.36;100.00;101219.97;5093485;28;20032;-45
2022/08/18 03:46:44;;;;;;;227.88;50.88;;;;;;;15.35;100.00;101226.91;5092398;28;20031;-45
2022/08/18 03:49:10;;;;;;;84.53;58.17;;;;;;;15.37;100.00;101225.19;5093237;28;20494;-45
2022/08/18 03:51:36;;;;;;;95.10;63.30;;;;;;;15.43;100.00;101224.44;5092912;28;20467;-45
2022/08/18 03:54:04;;;;;;;105.82;67.97;;;;;;;15.45;100.00;101222.72;5092632;28;20024;-45
2022/08/18 03:56:32;;;;;;;116.90;67.70;;;;;;;15.44;100.00;101229.63;5093048;28;20020;-45
2022/08/18 03:59:01;;;;;;;101.38;66.00;;;;;;;15.42;100.00;101223.53;5092611;28;20054;-47
2022/08/18 04:01:31;;;;;;;92.25;61.78;;;;;;;15.43;100.00;101225.28;5093445;28;20465;-45
2022/08/18 04:04:02;;;;;;;73.40;52.90;;;;;;;15.26;100.00;101221.53;5093200;28;20135;-48
2022/08/18 04:06:31;;;;;;;78.05;53.92;;;;;;;15.34;100.00;101214.75;5092261;28;20028;-44
2022/08/18 04:08:59;;;;;;;69.07;50.13;;;;;;;15.37;100.00;101219.13;5092835;28;20024;-46
2022/08/18 04:11:25;;;;;;;96.53;60.03;;;;;;;15.48;100.00;101218.44;5093154;28;20020;-46
2022/08/18 04:13:50;;;;;;;73.20;51.13;;;;;;;15.55;100.00;101223.72;5092308;28;20420;-48
2022/08/18 04:16:16;;;;;;;88.65;59.58;;;;;;;15.61;100.00;101223.84;5093021;28;20051;-45
2022/08/18 04:18:41;;;;;;;115.25;71.13;;;;;;;15.72;100.00;101210.97;5092833;28;20483;-44
2022/08/18 04:21:10;;;;;;;92.63;60.13;;;;;;;15.65;100.00;101212.63;5092418;28;20028;-44
2022/08/18 04:23:37;;;;;;;79.05;56.88;;;;;;;15.61;100.00;101214.31;5092653;28;20075;-46
2022/08/18 04:26:04;;;;;;;112.32;68.00;;;;;;;15.70;100.00;101217.88;5092774;28;20020;-44
2022/08/18 04:28:30;;;;;;;105.35;67.82;;;;;;;15.68;100.00;101220.44;5092291;28;20024;-44
2022/08/18 04:30:58;;;;;;;92.45;58.42;;;;;;;15.62;100.00;101217.75;5092762;28;20035;-46
2022/08/18 04:33:26;;;;;;;86.10;59.70;;;;;;;15.68;100.00;101217.84;5092436;28;20028;-44
2022/08/18 04:35:53;;;;;;;84.88;57.80;;;;;;;15.62;100.00;101220.34;5092059;28;20159;-45
2022/08/18 04:38:19;;;;;;;92.20;62.78;;;;;;;15.66;100.00;101216.97;5093042;28;20024;-44
2022/08/18 04:40:44;;;;;;;99.10;63.65;;;;;;;15.72;100.00;101217.03;5092316;28;20027;-43
2022/08/18 04:43:13;;;;;;;108.90;68.80;;;;;;;15.78;100.00;101211.94;5092147;28;20017;-44
2022/08/18 04:45:46;;;;;;;105.22;64.55;;;;;;;15.82;100.00;101222.44;5092508;28;20364;-48
2022/08/18 04:48:15;;;;;;;100.10;63.85;;;;;;;15.74;100.00;101225.75;5091765;28;20136;-46
2022/08/18 04:50:41;;;;;;;112.47;67.45;;;;;;;15.80;100.00;101224.94;5092761;28;20038;-45
2022/08/18 04:55:52;;;;;;;120.53;71.75;;;;;;;15.84;100.00;101237.19;5092146;28;20105;-47
2022/08/18 04:58:18;;;;;;;;;;;;;;;15.86;100.00;101243.25;5092917;28;20056;-47
2022/08/18 05:00:45;;;;;;;100.97;66.60;;;;;;;15.76;100.00;101244.84;5095437;28;19951;-44
2022/08/18 05:03:11;;;;;;;118.13;70.00;;;;;;;15.76;100.00;101239.66;5095589;28;20016;-45
2022/08/18 05:05:36;;;;;;;111.97;70.47;;;;;;;15.70;100.00;101246.44;5096234;28;20387;-45
2022/08/18 05:08:02;;;;;;;97.18;61.67;;;;;;;15.62;100.00;101243.75;5096286;28;20535;-46
2022/08/18 05:10:27;;;;;;;101.93;65.55;;;;;;;15.57;100.00;101228.09;5095695;28;20024;-45
2022/08/18 05:12:53;;;;;;;100.95;66.35;;;;;;;15.54;100.00;101229.78;5096221;28;20043;-45
2022/08/18 05:15:19;;;;;;;110.53;68.60;;;;;;;15.58;100.00;101231.56;5095929;28;20097;-46
2022/08/18 05:17:44;;;;;;;117.75;72.65;;;;;;;15.61;100.00;101248.06;5095821;28;20042;-44
2022/08/18 05:20:10;;;;;;;128.20;77.00;;;;;;;15.67;100.00;101247.28;5096114;28;20028;-45
2022/08/18 05:22:40;;;;;;;127.93;73.53;;;;;;;15.63;100.00;101246.38;5095764;28;20032;-46
2022/08/18 05:25:08;;;;;;;128.65;75.75;;;;;;;15.68;100.00;101245.56;5095406;28;20417;-44
2022/08/18 05:27:34;;;;;;;138.82;79.45;;;;;;;15.72;100.00;101244.75;5095812;28;20380;-44
2022/08/18 05:30:01;;;;;;;136.98;80.18;;;;;;;15.79;100.00;101250.06;5095693;28;20048;-47
2022/08/18 05:32:30;;;;;;;141.57;82.00;;;;;;;15.83;100.00;101248.44;5095507;28;20024;-44
2022/08/18 05:34:56;;;;;;;146.27;81.68;;;;;;;15.87;100.00;101246.72;5095895;28;20042;-44
2022/08/18 05:37:32;;;;;;;140.45;80.85;;;;;;;15.89;100.00;101240.69;5095601;28;20024;-45
2022/08/18 05:40:02;;;;;;;140.68;81.88;;;;;;;15.94;100.00;101251.16;5095704;28;20024;-45
2022/08/18 05:42:33;;;;;;;149.00;82.03;;;;;;;15.99;100.00;101256.44;5095597;28;20020;-46
2022/08/18 05:44:59;;;;;;;144.85;81.03;;;;;;;16.00;100.00;101256.47;5095136;28;20020;-45
2022/08/18 05:47:30;;;;;;;131.60;79.05;;;;;;;16.02;100.00;101253.88;5095601;28;20149;-44
2022/08/18 05:50:04;;;;;;;127.57;75.82;;;;;;;16.03;100.00;101248.69;5095645;28;20074;-48
2022/08/18 05:52:42;;;;;;;132.05;79.15;;;;;;;16.07;100.00;101263.47;5094718;28;20435;-45
2022/08/18 05:58:17;;;;;;;143.70;80.47;;;;;;;16.21;100.00;101268.00;5095241;28;20035;-44
2022/08/18 06:00:51;;;;;;;140.02;81.05;;;;;;;16.19;100.00;101269.69;5094799;28;20459;-45
2022/08/18 06:03:48;;;;;;;137.18;80.78;;;;;;;16.26;100.00;101266.34;5095407;28;20031;-46
2022/08/18 06:06:19;;;;;;;139.90;80.30;;;;;;;16.29;100.00;101271.56;5059772;28;20046;-45
2022/08/18 06:09:09;;;;;;;137.05;79.80;;;;;;;16.32;100.00;101271.63;5095286;28;20031;-45
2022/08/18 06:11:34;;;;;;;144.50;83.00;;;;;;;16.39;100.00;101268.22;5093603;28;20020;-44
2022/08/18 06:14:00;;;;;;;151.95;84.38;;;;;;;16.51;100.00;101269.22;5094480;28;20028;-44
2022/08/18 06:16:31;;;;;;;139.73;80.18;;;;;;;16.55;100.00;101273.63;5094961;28;20464;-46
2022/08/18 06:19:14;;;;;;;162.32;88.72;;;;;;;16.74;100.00;101272.97;5094944;28;20024;-48
2022/08/18 06:22:09;;;;;;;151.35;85.30;;;;;;;16.79;100.00;101279.09;5094334;28;20475;-46
2022/08/18 06:24:43;;;;;;;131.90;79.97;;;;;;;16.76;100.00;101279.06;5095131;28;20032;-46
2022/08/18 06:27:42;;;;;;;121.82;74.97;;;;;;;16.79;100.00;101273.88;5094336;28;20033;-45
2022/08/18 06:30:31;;;;;;;127.07;74.63;;;;;;;16.86;100.00;101268.75;5094821;28;20054;-46
2022/08/18 06:33:21;;;;;;;139.90;78.45;;;;;;;16.97;100.00;101276.72;5094636;28;20031;-44
2022/08/18 06:36:01;;;;;;;130.93;77.65;;;;;;;16.99;100.00;101278.47;5094292;28;20020;-45
2022/08/18 06:39:03;;;;;;;106.43;69.82;;;;;;;17.01;100.00;101289.75;5094625;28;20325;-47
2022/08/18 06:41:47;;;;;;;121.68;73.20;;;;;;;17.17;100.00;101295.13;5093922;28;20024;-46
2022/08/18 06:44:30;;;;;;;107.45;69.30;;;;;;;17.13;100.00;101288.16;5094683;28;20043;-50
2022/08/18 06:47:03;;;;;;;103.90;66.90;;;;;;;17.07;100.00;101282.03;5094150;28;20056;-44
2022/08/18 06:49:53;;;;;;;100.38;64.72;;;;;;;17.14;100.00;101289.91;5094043;28;20047;-45
2022/08/18 06:52:32;;;;;;;100.75;66.68;;;;;;;17.15;100.00;101283.84;5094341;28;20486;-44
2022/08/18 06:55:01;;;;;;;97.55;66.38;;;;;;;17.16;100.00;101290.78;5093689;28;20070;-46
2022/08/18 06:57:52;;;;;;;101.38;65.75;;;;;;;17.24;100.00;101289.13;5093877;28;20028;-44
2022/08/18 07:00:17;;;;;;;85.10;58.60;;;;;;;17.27;100.00;101290.03;5094258;28;20435;-45
2022/08/18 07:02:51;;;;;;;102.23;63.23;;;;;;;17.45;100.00;101296.25;5093626;28;20460;-44
2022/08/18 07:05:28;;;;;;;92.15;59.20;;;;;;;17.48;100.00;101301.50;5094277;28;20028;-44
2022/08/18 07:08:09;;;;;;;86.47;60.95;;;;;;;17.51;100.00;101301.50;5093900;28;20034;-45
2022/08/18 07:10:44;;;;;;;88.93;62.08;;;;;;;17.63;100.00;101297.28;5093319;28;20522;-47
2022/08/18 07:13:21;;;;;;;83.40;59.45;;;;;;;17.71;100.00;101299.03;5094009;28;20028;-45
2022/08/18 07:15:48;;;;;;;84.15;61.17;;;;;;;17.77;100.00;101301.69;5093852;28;20028;-48
2022/08/18 07:18:20;;;;;;;86.45;61.45;;;;;;;17.78;100.00;101300.00;5093335;28;20020;-44
2022/08/18 07:20:53;;;;;;;93.00;62.38;;;;;;;17.90;100.00;101307.88;5093910;28;20024;-45
2022/08/18 07:23:33;;;;;;;78.43;58.58;;;;;;;18.00;100.00;101294.91;5092958;28;20035;-45
2022/08/18 07:26:19;;;;;;;77.25;55.17;;;;;;;18.09;100.00;101298.47;5093724;28;20434;-44
2022/08/18 07:28:45;;;;;;;80.57;58.05;;;;;;;18.19;100.00;101301.13;5092792;28;20036;-49
2022/08/18 07:31:41;;;;;;;79.15;54.15;;;;;;;18.31;100.00;101293.38;5093025;28;20601;-44
2022/08/18 07:34:15;;;;;;;63.05;49.90;;;;;;;18.46;100.00;101295.16;5093434;28;20428;-44
2022/08/18 07:36:53;;;;;;;63.72;48.83;;;;;;;18.63;100.00;101291.75;5093301;28;20051;-45
2022/08/18 07:39:29;;;;;;;61.50;46.47;;;;;;;18.78;100.00;101293.53;5092919;28;20028;-47
2022/08/18 07:42:16;;;;;;;57.17;47.05;;;;;;;18.85;100.00;101298.78;5093591;28;20055;-46
2022/08/18 07:44:48;;;;;;;54.35;44.03;;;;;;;18.83;100.00;101297.03;5092799;28;20495;-46
2022/08/18 07:47:28;;;;;;;53.92;44.17;;;;;;;18.91;100.00;101308.41;5093327;28;20065;-47
2022/08/18 07:49:57;;;;;;;52.45;43.15;;;;;;;19.00;100.00;101295.34;5090249;28;20043;-46
2022/08/18 07:53:12;;;;;;;47.20;39.47;;;;;;;19.25;100.00;101305.84;5092825;28;20028;-45
2022/08/18 07:55:44;;;;;;;44.30;35.92;;;;;;;19.49;100.00;101301.50;5070110;28;20111;-45
2022/08/18 07:58:36;;;;;;;44.75;37.65;;;;;;;19.54;100.00;101297.16;5092415;28;20039;-47
2022/08/18 08:01:28;;;;;;;47.67;38.67;;;;;;;19.76;100.00;101299.75;5093329;28;20016;-45
2022/08/18 08:04:25;;;;;;;42.72;36.88;;;;;;;20.05;100.00;101302.31;5092812;28;20463;-46
2022/08/18 08:07:08;;;;;;;;;;;;;;;20.21;100.00;101300.53;5093173;28;20036;-46
2022/08/18 08:09:52;;;;;;;39.10;33.00;;;;;;;20.35;100.00;101306.59;5092950;28;20252;-46
2022/08/18 08:12:39;;;;;;;37.15;33.25;;;;;;;20.47;99.72;101300.44;5092279;28;20027;-46
2022/08/18 08:15:21;;;;;;;41.58;33.88;;;;;;;20.44;99.90;101303.09;5093122;28;20032;-45
2022/08/18 08:18:00;;;;;;;40.28;34.75;;;;;;;20.50;100.00;101302.16;5093064;28;20044;-45
2022/08/18 08:20:38;;;;;;;38.72;34.22;;;;;;;20.68;98.05;101304.72;5092325;28;20042;-45
2022/08/18 08:23:26;;;;;;;36.85;31.70;;;;;;;20.73;96.05;101304.72;5092823;28;20020;-46
2022/08/18 08:26:03;;;;;;;36.08;31.63;;;;;;;20.74;96.71;101308.22;5092835;28;20031;-46
2022/08/18 08:28:49;;;;;;;35.42;31.58;;;;;;;20.89;96.16;101308.13;5092252;28;20077;-46
2022/08/18 08:31:41;;;;;;;35.70;31.17;;;;;;;20.93;94.44;101314.19;5092950;28;20032;-48
2022/08/18 08:34:27;;;;;;;32.63;29.13;;;;;;;20.89;95.90;101314.22;5092748;28;20114;-47
2022/08/18 08:37:08;;;;;;;36.78;30.95;;;;;;;20.84;93.93;101321.25;5097076;28;20036;-45
2022/08/18 08:39:54;;;;;;;32.67;28.90;;;;;;;20.85;92.27;101315.13;5096605;28;20460;-46
2022/08/18 08:42:36;;;;;;;31.13;27.75;;;;;;;21.29;92.81;101323.59;5096688;28;20052;-47
2022/08/18 08:45:07;;;;;;;23.48;19.35;;;;;;;21.67;87.28;101319.81;5096855;28;20486;-46
2022/08/18 08:47:48;;;;;;;20.95;18.75;;;;;;;22.06;86.17;101315.94;5095957;28;20040;-46
2022/08/18 08:50:20;;;;;;;22.88;19.58;;;;;;;22.03;85.19;101320.31;5096865;28;20119;-46
2022/08/18 08:53:01;;;;;;;22.55;20.23;;;;;;;21.94;87.13;101323.06;5096365;28;20709;-46
2022/08/18 08:55:34;;;;;;;22.35;20.02;;;;;;;21.73;83.81;101324.13;5096160;28;20031;-46
2022/08/18 08:58:17;;;;;;;21.90;19.50;;;;;;;21.84;84.27;101335.38;5096446;28;20023;-48
2022/08/18 09:00:44;;;;;;;21.67;19.38;;;;;;;21.95;85.38;101329.16;5096247;28;20028;-46
2022/08/18 09:03:17;;;;;;;18.45;16.42;;;;;;;22.06;85.92;101331.69;5096054;28;20720;-47
2022/08/18 09:05:59;;;;;;;16.27;14.45;;;;;;;22.08;85.38;101324.66;5096603;28;20073;-50
2022/08/18 09:09:12;;;;;;;17.00;13.18;;;;;;;22.11;85.94;101319.38;5095757;28;20028;-47
2022/08/18 09:11:49;;;;;;;14.05;12.50;;;;;;;21.98;82.33;101326.53;5087222;28;20430;-50
2022/08/18 09:14:45;;;;;;;14.15;12.30;;;;;;;21.91;82.08;101325.72;5096148;28;20387;-48
2022/08/18 09:17:23;;;;;;;16.27;11.50;;;;;;;22.35;81.17;101329.59;5095703;28;20036;-49
2022/08/18 09:20:13;;;;;;;14.77;11.07;;;;;;;22.71;78.24;101326.59;5096560;28;20031;-46
2022/08/18 09:22:53;;;;;;;12.98;9.95;;;;;;;22.84;75.93;101322.03;5095384;28;20051;-46
2022/08/18 09:25:37;;;;;;;13.15;10.18;;;;;;;23.17;79.25;101325.06;5096249;28;20459;-48
2022/08/18 09:28:28;;;;;;;12.40;10.35;;;;;;;23.15;77.61;101324.22;5096027;28;20073;-47
2022/08/18 09:31:04;;;;;;;14.00;10.40;;;;;;;22.79;74.90;101332.59;5050031;28;20083;-49
2022/08/18 09:33:56;;;;;;;11.85;9.82;;;;;;;22.65;76.10;101327.50;5095933;28;20070;-50
2022/08/18 09:36:28;;;;;;;12.07;8.52;;;;;;;22.50;75.10;101325.97;5091742;28;20067;-46
2022/08/18 09:41:53;;;;;;;9.50;7.85;;;;;;;22.75;74.22;101311.63;5095809;28;20035;-51
2022/08/18 09:44:46;;;;;;;13.10;9.23;;;;;;;23.08;71.57;101314.66;5095263;28;20032;-49
2022/08/18 09:47:20;;;;;;;13.05;8.52;;;;;;;23.68;71.81;101313.72;5095655;28;20079;-50
2022/08/18 09:49:47;;;;;;;13.07;9.00;;;;;;;23.48;70.47;101319.31;5095379;28;20494;-50
2022/08/18 09:52:22;;;;;;;10.65;8.55;;;;;;;23.42;72.73;101320.31;5095070;28;20107;-48
2022/08/18 09:54:50;;;;;;;9.55;7.75;;;;;;;23.21;70.94;101320.63;5095428;28;20039;-46
2022/08/18 09:57:23;;;;;;;13.55;8.85;;;;;;;23.17;72.33;101315.41;5095387;28;20498;-49
2022/08/18 09:59:48;;;;;;;10.80;8.02;;;;;;;22.90;69.23;101326.31;5094867;28;20361;-49
2022/08/18 10:02:26;;;;;;;9.87;7.80;;;;;;;22.96;71.84;101327.09;5095528;28;20450;-50
2022/08/18 10:05:14;;;;;;;10.80;7.72;;;;;;;23.03;72.73;101322.59;5094569;28;20107;-50
2022/08/18 10:07:42;;;;;;;13.00;8.90;;;;;;;23.48;68.88;101319.31;5095094;28;20107;-51
2022/08/18 10:10:51;;;;;;;11.10;8.05;;;;;;;24.20;69.18;101309.28;5094928;28;20454;-45
2022/08/18 10:13:32;;;;;;;11.75;8.45;;;;;;;24.82;66.12;101318.53;5068018;28;20157;-49
2022/08/18 10:16:04;;;;;;;10.23;8.52;;;;;;;24.71;66.50;101310.84;5095006;28;20494;-49
2022/08/18 10:18:50;;;;;;;10.95;9.07;;;;;;;25.20;63.33;101314.13;5094987;28;20102;-48
2022/08/18 10:21:26;;;;;;;12.02;9.63;;;;;;;25.55;59.16;101315.06;5095367;28;20032;-49
2022/08/18 10:24:16;;;;;;;9.57;8.23;;;;;;;25.63;63.36;101306.97;5094666;28;20095;-48
2022/08/18 10:26:41;;;;;;;10.52;8.00;;;;;;;26.00;59.17;101308.59;5094511;28;20111;-51
2022/08/18 10:29:28;;;;;;;10.00;8.63;;;;;;;26.07;63.14;101311.97;5095082;28;20123;-51
2022/08/18 10:31:53;;;;;;;;;;;;;;;26.25;64.24;101314.09;5095068;28;20028;-49
2022/08/18 10:34:45;;;;;;;12.68;9.73;;;;;;;25.65;63.14;101310.41;5094225;28;19935;-47
2022/08/18 10:37:12;;;;;;;12.93;9.23;;;;;;;25.49;60.38;101304.66;5094817;28;20020;-46
2022/08/18 10:39:37;;;;;;;9.93;8.80;;;;;;;25.40;59.11;101303.13;5094346;28;20375;-49
2022/08/18 10:42:16;;;;;;;9.80;8.20;;;;;;;26.04;62.47;101296.16;5094097;28;20498;-49
2022/08/18 10:44:45;;;;;;;10.23;8.73;;;;;;;26.44;59.24;101298.56;5094511;28;20035;-47
2022/08/18 10:47:26;;;;;;;13.18;8.70;;;;;;;27.21;57.49;101297.09;5093947;28;20051;-51
2022/08/18 10:49:52;;;;;;;10.45;8.15;;;;;;;27.05;53.38;101299.38;5094635;28;20032;-50
2022/08/18 10:52:35;;;;;;;9.77;8.40;;;;;;;26.88;57.54;101306.09;5094361;28;20020;-50
2022/08/18 10:55:19;;;;;;;11.68;9.30;;;;;;;28.22;53.42;101303.31;5093816;28;20028;-50
2022/08/18 10:58:02;;;;;;;10.68;9.68;;;;;;;27.65;53.52;101302.69;5093792;28;20028;-50
2022/08/18 11:01:06;;;;;;;12.13;10.25;;;;;;;27.11;55.44;101304.47;5094004;28;20034;-48
2022/08/18 11:03:58;;;;;;;11.35;9.13;;;;;;;26.45;56.03;101304.72;5089124;28;20046;-51
2022/08/18 11:06:24;;;;;;;12.10;9.68;;;;;;;25.72;56.27;101312.00;5093991;28;20046;-46
2022/08/18 11:08:53;;;;;;;12.40;9.95;;;;;;;25.41;56.84;101307.50;5093612;28;20054;-47
2022/08/18 11:11:22;;;;;;;11.88;10.57;;;;;;;25.08;59.65;101309.16;5094177;28;20024;-46
2022/08/18 11:13:53;;;;;;;13.02;11.73;;;;;;;24.91;58.88;101307.78;5093679;28;20052;-50
2022/08/18 11:16:51;;;;;;;13.90;11.40;;;;;;;24.75;60.46;101295.84;5093815;28;20031;-49
2022/08/18 11:19:19;;;;;;;12.15;10.95;;;;;;;24.18;61.28;101292.63;5093959;28;20479;-50
2022/08/18 11:21:49;;;;;;;13.93;10.98;;;;;;;24.36;61.20;101287.88;5093696;28;20020;-50
2022/08/18 11:24:24;;;;;;;13.48;10.90;;;;;;;24.41;63.19;101286.03;5093585;28;20043;-51
2022/08/18 11:27:01;;;;;;;14.25;11.20;;;;;;;24.47;64.21;101280.63;5093697;28;20030;-51
2022/08/18 11:29:32;;;;;;;11.75;10.50;;;;;;;24.55;61.57;101277.81;5093190;28;20024;-49
2022/08/18 11:32:17;;;;;;;11.98;10.60;;;;;;;25.08;59.74;101272.25;5093635;28;20032;-48
2022/08/18 11:34:52;;;;;;;12.73;10.15;;;;;;;26.51;58.56;101264.88;5093299;28;20107;-50
2022/08/18 11:37:38;;;;;;;11.30;9.50;;;;;;;28.16;55.26;101271.78;5093338;28;20036;-48
2022/08/18 11:40:17;;;;;;;11.77;10.57;;;;;;;29.20;50.43;101273.00;5075839;28;20032;-50
2022/08/18 11:42:52;;;;;;;13.27;9.75;;;;;;;29.53;47.69;101273.38;5093291;28;20028;-50
2022/08/18 11:45:22;;;;;;;11.55;9.98;;;;;;;28.98;46.04;101265.94;5092960;28;20085;-47
2022/08/18 11:48:18;;;;;;;9.15;8.23;;;;;;;29.07;49.63;101264.69;5093361;28;20035;-51
2022/08/18 11:51:04;;;;;;;;;;;;;;;29.99;51.61;101256.34;5093333;28;20028;-50